sensor_id;sensor_type;location;lat;lon;timestamp;temperature;humidity
24802;DHT22;12898;50.520;12.152;2023-09-19T00:01:12;15.60;99.90
24802;DHT22;12898;50.520;12.152;2023-09-19T00:03:39;15.50;99.90
24802;DHT22;12898;50.520;12.152;2023-09-19T00:06:07;15.60;99.90
24802;DHT22;12898;50.520;12.152;2023-09-19T00:08:33;15.50;99.90
24802;DHT22;12898;50.520;12.152;2023-09-19T00:10:59;15.60;99.90
24802;DHT22;12898;50.520;12.152;2023-09-19T00:13:32;15.50;99.90
24802;DHT22;12898;50.520;12.152;2023-09-19T00:15:59;15.50;99.90
24802;DHT22;12898;50.520;12.152;2023-09-19T00:18:25;15.50;99.90
24802;DHT22;12898;50.520;12.152;2023-09-19T00:20:58;15.50;99.90
24802;DHT22;12898;50.520;12.152;2023-09-19T00:23:24;15.50;99.90
24802;DHT22;12898;50.520;12.152;2023-09-19T00:25:50;15.50;99.90
24802;DHT22;12898;50.520;12.152;2023-09-19T00:28:16;15.50;99.90
24802;DHT22;12898;50.520;12.152;2023-09-19T00:30:44;15.50;99.90
24802;DHT22;12898;50.520;12.152;2023-09-19T00:33:11;15.50;99.90
24802;DHT22;12898;50.520;12.152;2023-09-19T00:35:50;15.50;99.90
24802;DHT22;12898;50.520;12.152;2023-09-19T00:38:16;15.50;99.90
24802;DHT22;12898;50.520;12.152;2023-09-19T00:40:44;15.60;99.90
24802;DHT22;12898;50.520;12.152;2023-09-19T00:43:10;15.70;99.90
24802;DHT22;12898;50.520;12.152;2023-09-19T00:45:37;15.70;99.90
24802;DHT22;12898;50.520;12.152;2023-09-19T00:48:08;15.70;99.90
24802;DHT22;12898;50.520;12.152;2023-09-19T00:50:35;15.70;99.90
24802;DHT22;12898;50.520;12.152;2023-09-19T00:53:01;15.70;99.90
24802;DHT22;12898;50.520;12.152;2023-09-19T00:55:34;15.70;99.90
24802;DHT22;12898;50.520;12.152;2023-09-19T00:58:00;15.70;99.90
24802;DHT22;12898;50.520;12.152;2023-09-19T01:00:26;15.80;99.90
24802;DHT22;12898;50.520;12.152;2023-09-19T01:02:53;15.70;99.90
24802;DHT22;12898;50.520;12.152;2023-09-19T01:05:19;15.80;99.90
24802;DHT22;12898;50.520;12.152;2023-09-19T01:07:45;15.80;99.90
24802;DHT22;12898;50.520;12.152;2023-09-19T01:10:16;15.80;99.90
24802;DHT22;12898;50.520;12.152;2023-09-19T01:23:39;15.70;99.90
24802;DHT22;12898;50.520;12.152;2023-09-19T01:26:34;15.60;99.90
24802;DHT22;12898;50.520;12.152;2023-09-19T01:29:37;15.60;99.90
24802;DHT22;12898;50.520;12.152;2023-09-19T01:32:06;15.50;99.90
24802;DHT22;12898;50.520;12.152;2023-09-19T01:34:51;15.50;99.90
24802;DHT22;12898;50.520;12.152;2023-09-19T01:37:24;15.50;99.90
24802;DHT22;12898;50.520;12.152;2023-09-19T01:40:00;15.50;99.90
24802;DHT22;12898;50.520;12.152;2023-09-19T01:42:45;15.50;99.90
24802;DHT22;12898;50.520;12.152;2023-09-19T01:45:19;15.50;99.90
24802;DHT22;12898;50.520;12.152;2023-09-19T01:51:22;15.40;99.90
24802;DHT22;12898;50.520;12.152;2023-09-19T01:54:02;15.40;99.90
24802;DHT22;12898;50.520;12.152;2023-09-19T01:56:40;15.30;99.90
24802;DHT22;12898;50.520;12.152;2023-09-19T01:59:13;15.30;99.90
24802;DHT22;12898;50.520;12.152;2023-09-19T02:01:40;15.20;99.90
24802;DHT22;12898;50.520;12.152;2023-09-19T02:04:07;15.20;99.90
24802;DHT22;12898;50.520;12.152;2023-09-19T02:06:33;15.20;99.90
24802;DHT22;12898;50.520;12.152;2023-09-19T02:08:59;15.20;99.90
24802;DHT22;12898;50.520;12.152;2023-09-19T02:11:25;15.20;99.90
24802;DHT22;12898;50.520;12.152;2023-09-19T02:13:51;15.30;99.90
24802;DHT22;12898;50.520;12.152;2023-09-19T02:16:19;15.30;99.90
24802;DHT22;12898;50.520;12.152;2023-09-19T02:18:48;15.30;99.90
24802;DHT22;12898;50.520;12.152;2023-09-19T02:21:15;15.30;99.90
24802;DHT22;12898;50.520;12.152;2023-09-19T02:23:42;15.30;99.90
24802;DHT22;12898;50.520;12.152;2023-09-19T02:26:09;15.30;99.90
24802;DHT22;12898;50.520;12.152;2023-09-19T02:28:37;15.20;99.90
24802;DHT22;12898;50.520;12.152;2023-09-19T02:31:03;15.20;99.90
24802;DHT22;12898;50.520;12.152;2023-09-19T02:33:31;15.20;99.90
24802;DHT22;12898;50.520;12.152;2023-09-19T02:35:58;15.20;99.90
24802;DHT22;12898;50.520;12.152;2023-09-19T02:38:24;15.10;99.90
24802;DHT22;12898;50.520;12.152;2023-09-19T02:40:52;15.20;99.90
24802;DHT22;12898;50.520;12.152;2023-09-19T02:43:18;15.20;99.90
24802;DHT22;12898;50.520;12.152;2023-09-19T02:45:45;15.20;99.90
24802;DHT22;12898;50.520;12.152;2023-09-19T02:48:12;15.10;99.90
24802;DHT22;12898;50.520;12.152;2023-09-19T02:50:38;15.10;99.90
24802;DHT22;12898;50.520;12.152;2023-09-19T02:53:05;15.10;99.90
24802;DHT22;12898;50.520;12.152;2023-09-19T02:55:32;15.10;99.90
24802;DHT22;12898;50.520;12.152;2023-09-19T02:57:58;15.10;99.90
24802;DHT22;12898;50.520;12.152;2023-09-19T03:00:24;15.10;99.90
24802;DHT22;12898;50.520;12.152;2023-09-19T03:02:54;15.10;99.90
24802;DHT22;12898;50.520;12.152;2023-09-19T03:05:21;15.10;99.90
24802;DHT22;12898;50.520;12.152;2023-09-19T03:07:49;15.10;99.90
24802;DHT22;12898;50.520;12.152;2023-09-19T03:10:19;15.20;99.90
24802;DHT22;12898;50.520;12.152;2023-09-19T03:12:46;15.20;99.90
24802;DHT22;12898;50.520;12.152;2023-09-19T03:15:14;15.20;99.90
24802;DHT22;12898;50.520;12.152;2023-09-19T03:17:45;15.30;99.90
24802;DHT22;12898;50.520;12.152;2023-09-19T03:20:11;15.20;99.90
24802;DHT22;12898;50.520;12.152;2023-09-19T03:22:39;15.30;99.90
24802;DHT22;12898;50.520;12.152;2023-09-19T03:25:06;15.30;99.90
24802;DHT22;12898;50.520;12.152;2023-09-19T03:27:36;15.30;99.90
24802;DHT22;12898;50.520;12.152;2023-09-19T03:30:03;15.40;99.90
24802;DHT22;12898;50.520;12.152;2023-09-19T03:32:34;15.40;99.90
24802;DHT22;12898;50.520;12.152;2023-09-19T03:35:01;15.50;99.90
24802;DHT22;12898;50.520;12.152;2023-09-19T03:37:27;15.50;99.90
24802;DHT22;12898;50.520;12.152;2023-09-19T03:39:53;15.50;99.90
24802;DHT22;12898;50.520;12.152;2023-09-19T03:42:19;15.60;99.90
24802;DHT22;12898;50.520;12.152;2023-09-19T03:44:51;15.50;99.90
24802;DHT22;12898;50.520;12.152;2023-09-19T03:47:18;15.60;99.90
24802;DHT22;12898;50.520;12.152;2023-09-19T03:49:44;15.60;99.90
24802;DHT22;12898;50.520;12.152;2023-09-19T03:52:10;15.60;99.90
24802;DHT22;12898;50.520;12.152;2023-09-19T03:54:36;15.60;99.90
24802;DHT22;12898;50.520;12.152;2023-09-19T03:57:02;15.60;99.90
24802;DHT22;12898;50.520;12.152;2023-09-19T03:59:29;15.60;99.90
24802;DHT22;12898;50.520;12.152;2023-09-19T04:01:55;15.60;99.90
24802;DHT22;12898;50.520;12.152;2023-09-19T04:04:22;15.60;99.90
24802;DHT22;12898;50.520;12.152;2023-09-19T04:06:50;15.60;99.90
24802;DHT22;12898;50.520;12.152;2023-09-19T04:09:16;15.60;99.90
24802;DHT22;12898;50.520;12.152;2023-09-19T04:11:42;15.70;99.90
24802;DHT22;12898;50.520;12.152;2023-09-19T04:14:08;15.60;99.90
24802;DHT22;12898;50.520;12.152;2023-09-19T04:16:33;15.60;99.90
24802;DHT22;12898;50.520;12.152;2023-09-19T04:19:02;15.60;99.90
24802;DHT22;12898;50.520;12.152;2023-09-19T04:21:29;15.70;99.90
24802;DHT22;12898;50.520;12.152;2023-09-19T04:23:54;15.60;99.90
24802;DHT22;12898;50.520;12.152;2023-09-19T04:26:20;15.70;99.90
24802;DHT22;12898;50.520;12.152;2023-09-19T04:28:47;15.70;99.90
24802;DHT22;12898;50.520;12.152;2023-09-19T04:31:13;15.70;99.90
24802;DHT22;12898;50.520;12.152;2023-09-19T04:33:39;15.70;99.90
24802;DHT22;12898;50.520;12.152;2023-09-19T04:36:05;15.70;99.90
24802;DHT22;12898;50.520;12.152;2023-09-19T04:38:33;15.60;99.90
24802;DHT22;12898;50.520;12.152;2023-09-19T04:40:59;15.60;99.90
24802;DHT22;12898;50.520;12.152;2023-09-19T04:43:25;15.50;99.90
24802;DHT22;12898;50.520;12.152;2023-09-19T04:45:51;15.50;99.90
24802;DHT22;12898;50.520;12.152;2023-09-19T04:48:21;15.50;99.90
24802;DHT22;12898;50.520;12.152;2023-09-19T04:50:49;15.40;99.90
24802;DHT22;12898;50.520;12.152;2023-09-19T04:53:17;15.40;99.90
24802;DHT22;12898;50.520;12.152;2023-09-19T04:55:49;15.40;99.90
24802;DHT22;12898;50.520;12.152;2023-09-19T04:58:18;15.40;99.90
24802;DHT22;12898;50.520;12.152;2023-09-19T05:00:45;15.30;99.90
24802;DHT22;12898;50.520;12.152;2023-09-19T05:03:11;15.30;99.90
24802;DHT22;12898;50.520;12.152;2023-09-19T05:05:36;15.30;99.90
24802;DHT22;12898;50.520;12.152;2023-09-19T05:08:04;15.30;99.90
24802;DHT22;12898;50.520;12.152;2023-09-19T05:10:32;15.30;99.90
24802;DHT22;12898;50.520;12.152;2023-09-19T05:12:58;15.30;99.90
24802;DHT22;12898;50.520;12.152;2023-09-19T05:15:23;15.30;99.90
24802;DHT22;12898;50.520;12.152;2023-09-19T05:17:52;15.30;99.90
24802;DHT22;12898;50.520;12.152;2023-09-19T05:20:20;15.30;99.90
24802;DHT22;12898;50.520;12.152;2023-09-19T05:23:05;15.30;99.90
24802;DHT22;12898;50.520;12.152;2023-09-19T05:25:35;15.40;99.90
24802;DHT22;12898;50.520;12.152;2023-09-19T05:28:10;15.40;99.90
24802;DHT22;12898;50.520;12.152;2023-09-19T05:30:37;15.40;99.90
24802;DHT22;12898;50.520;12.152;2023-09-19T05:33:04;15.40;99.90
24802;DHT22;12898;50.520;12.152;2023-09-19T05:35:31;15.40;99.90
24802;DHT22;12898;50.520;12.152;2023-09-19T05:37:57;15.40;99.90
24802;DHT22;12898;50.520;12.152;2023-09-19T05:40:24;15.40;99.90
24802;DHT22;12898;50.520;12.152;2023-09-19T05:42:50;15.30;99.90
24802;DHT22;12898;50.520;12.152;2023-09-19T05:45:17;15.40;99.90
24802;DHT22;12898;50.520;12.152;2023-09-19T05:47:48;15.40;99.90
24802;DHT22;12898;50.520;12.152;2023-09-19T05:50:21;15.40;99.90
24802;DHT22;12898;50.520;12.152;2023-09-19T05:52:54;15.40;99.90
24802;DHT22;12898;50.520;12.152;2023-09-19T05:55:21;15.50;99.90
24802;DHT22;12898;50.520;12.152;2023-09-19T05:57:50;15.60;99.90
24802;DHT22;12898;50.520;12.152;2023-09-19T06:00:18;15.60;99.90
24802;DHT22;12898;50.520;12.152;2023-09-19T06:02:52;15.70;99.90
24802;DHT22;12898;50.520;12.152;2023-09-19T06:05:19;15.80;99.90
24802;DHT22;12898;50.520;12.152;2023-09-19T06:07:45;15.90;99.90
24802;DHT22;12898;50.520;12.152;2023-09-19T06:10:12;15.90;99.90
24802;DHT22;12898;50.520;12.152;2023-09-19T06:12:39;15.90;99.90
24802;DHT22;12898;50.520;12.152;2023-09-19T06:15:05;15.90;99.90
24802;DHT22;12898;50.520;12.152;2023-09-19T06:17:34;15.90;99.90
24802;DHT22;12898;50.520;12.152;2023-09-19T06:20:07;15.90;99.90
24802;DHT22;12898;50.520;12.152;2023-09-19T06:22:41;15.90;99.90
24802;DHT22;12898;50.520;12.152;2023-09-19T06:25:08;15.90;99.90
24802;DHT22;12898;50.520;12.152;2023-09-19T06:27:41;15.90;99.90
24802;DHT22;12898;50.520;12.152;2023-09-19T06:30:09;15.90;99.90
24802;DHT22;12898;50.520;12.152;2023-09-19T06:32:36;15.90;99.90
24802;DHT22;12898;50.520;12.152;2023-09-19T06:35:03;15.90;99.90
24802;DHT22;12898;50.520;12.152;2023-09-19T06:37:29;16.00;99.90
24802;DHT22;12898;50.520;12.152;2023-09-19T06:39:55;16.10;99.90
24802;DHT22;12898;50.520;12.152;2023-09-19T06:42:22;16.10;99.90
24802;DHT22;12898;50.520;12.152;2023-09-19T06:44:49;16.30;99.90
24802;DHT22;12898;50.520;12.152;2023-09-19T06:47:14;16.40;99.90
24802;DHT22;12898;50.520;12.152;2023-09-19T06:49:41;16.50;99.90
24802;DHT22;12898;50.520;12.152;2023-09-19T06:52:09;16.60;99.90
24802;DHT22;12898;50.520;12.152;2023-09-19T06:54:35;16.80;99.90
24802;DHT22;12898;50.520;12.152;2023-09-19T06:57:01;16.80;99.90
24802;DHT22;12898;50.520;12.152;2023-09-19T06:59:27;17.00;99.90
24802;DHT22;12898;50.520;12.152;2023-09-19T07:01:53;17.00;99.90
24802;DHT22;12898;50.520;12.152;2023-09-19T07:04:19;16.90;99.90
24802;DHT22;12898;50.520;12.152;2023-09-19T07:06:49;17.00;99.90
24802;DHT22;12898;50.520;12.152;2023-09-19T07:09:15;17.00;99.90
24802;DHT22;12898;50.520;12.152;2023-09-19T07:11:42;17.00;99.90
24802;DHT22;12898;50.520;12.152;2023-09-19T07:14:08;17.30;99.90
24802;DHT22;12898;50.520;12.152;2023-09-19T07:16:37;17.40;99.90
24802;DHT22;12898;50.520;12.152;2023-09-19T07:19:05;17.80;99.90
24802;DHT22;12898;50.520;12.152;2023-09-19T07:21:31;18.00;99.90
24802;DHT22;12898;50.520;12.152;2023-09-19T07:23:59;18.10;99.90
24802;DHT22;12898;50.520;12.152;2023-09-19T07:26:26;18.30;99.90
24802;DHT22;12898;50.520;12.152;2023-09-19T07:28:53;18.50;99.90
24802;DHT22;12898;50.520;12.152;2023-09-19T07:31:19;18.70;99.90
24802;DHT22;12898;50.520;12.152;2023-09-19T07:33:45;18.70;99.90
24802;DHT22;12898;50.520;12.152;2023-09-19T07:36:12;18.60;99.90
24802;DHT22;12898;50.520;12.152;2023-09-19T07:38:41;18.70;99.90
24802;DHT22;12898;50.520;12.152;2023-09-19T07:41:08;18.70;99.90
24802;DHT22;12898;50.520;12.152;2023-09-19T07:43:35;18.70;99.90
24802;DHT22;12898;50.520;12.152;2023-09-19T07:46:06;18.70;99.90
24802;DHT22;12898;50.520;12.152;2023-09-19T07:48:35;18.50;99.90
24802;DHT22;12898;50.520;12.152;2023-09-19T07:51:08;18.30;99.90
24802;DHT22;12898;50.520;12.152;2023-09-19T07:53:35;18.10;99.90
24802;DHT22;12898;50.520;12.152;2023-09-19T07:56:08;18.10;99.90
24802;DHT22;12898;50.520;12.152;2023-09-19T07:58:35;18.40;99.90
24802;DHT22;12898;50.520;12.152;2023-09-19T08:01:10;18.60;99.90
24802;DHT22;12898;50.520;12.152;2023-09-19T08:03:36;18.70;99.90
24802;DHT22;12898;50.520;12.152;2023-09-19T08:06:07;18.70;99.90
24802;DHT22;12898;50.520;12.152;2023-09-19T08:08:33;18.40;99.90
24802;DHT22;12898;50.520;12.152;2023-09-19T08:11:03;18.50;99.90
24802;DHT22;12898;50.520;12.152;2023-09-19T08:13:40;18.60;99.90
24802;DHT22;12898;50.520;12.152;2023-09-19T08:16:15;18.70;99.90
24802;DHT22;12898;50.520;12.152;2023-09-19T08:18:48;18.70;99.90
24802;DHT22;12898;50.520;12.152;2023-09-19T08:21:18;18.50;99.90
24802;DHT22;12898;50.520;12.152;2023-09-19T08:23:44;18.70;99.90
24802;DHT22;12898;50.520;12.152;2023-09-19T08:26:11;19.00;99.90
24802;DHT22;12898;50.520;12.152;2023-09-19T08:28:39;19.20;99.90
24802;DHT22;12898;50.520;12.152;2023-09-19T08:31:08;19.40;99.90
24802;DHT22;12898;50.520;12.152;2023-09-19T08:33:35;19.60;99.90
24802;DHT22;12898;50.520;12.152;2023-09-19T08:36:05;19.60;99.90
24802;DHT22;12898;50.520;12.152;2023-09-19T08:38:34;19.50;99.90
24802;DHT22;12898;50.520;12.152;2023-09-19T08:41:01;19.40;99.90
24802;DHT22;12898;50.520;12.152;2023-09-19T08:43:30;19.10;99.90
24802;DHT22;12898;50.520;12.152;2023-09-19T08:46:09;18.90;99.90
24802;DHT22;12898;50.520;12.152;2023-09-19T08:48:39;18.80;99.90
24802;DHT22;12898;50.520;12.152;2023-09-19T08:51:45;18.70;99.90
24802;DHT22;12898;50.520;12.152;2023-09-19T08:54:41;18.70;99.90
24802;DHT22;12898;50.520;12.152;2023-09-19T08:57:07;18.60;99.90
24802;DHT22;12898;50.520;12.152;2023-09-19T08:59:37;18.50;99.90
24802;DHT22;12898;50.520;12.152;2023-09-19T09:02:10;18.40;99.90
24802;DHT22;12898;50.520;12.152;2023-09-19T09:04:40;18.40;99.90
24802;DHT22;12898;50.520;12.152;2023-09-19T09:07:11;18.40;99.90
24802;DHT22;12898;50.520;12.152;2023-09-19T09:09:38;18.40;99.90
24802;DHT22;12898;50.520;12.152;2023-09-19T09:12:12;18.40;99.90
24802;DHT22;12898;50.520;12.152;2023-09-19T09:14:45;18.40;99.90
24802;DHT22;12898;50.520;12.152;2023-09-19T09:17:14;18.50;99.90
24802;DHT22;12898;50.520;12.152;2023-09-19T09:19:40;18.60;99.90
24802;DHT22;12898;50.520;12.152;2023-09-19T09:22:11;18.60;99.90
24802;DHT22;12898;50.520;12.152;2023-09-19T09:24:39;18.70;99.90
24802;DHT22;12898;50.520;12.152;2023-09-19T09:27:20;18.70;99.90
24802;DHT22;12898;50.520;12.152;2023-09-19T09:29:47;18.80;99.90
24802;DHT22;12898;50.520;12.152;2023-09-19T09:32:27;18.80;99.90
24802;DHT22;12898;50.520;12.152;2023-09-19T09:34:56;18.90;99.90
24802;DHT22;12898;50.520;12.152;2023-09-19T09:37:24;18.90;99.90
24802;DHT22;12898;50.520;12.152;2023-09-19T09:39:55;19.00;99.90
24802;DHT22;12898;50.520;12.152;2023-09-19T09:42:36;19.00;99.90
24802;DHT22;12898;50.520;12.152;2023-09-19T09:45:19;19.00;99.90
24802;DHT22;12898;50.520;12.152;2023-09-19T09:47:53;19.40;99.90
24802;DHT22;12898;50.520;12.152;2023-09-19T09:50:29;19.70;99.90
24802;DHT22;12898;50.520;12.152;2023-09-19T09:53:26;19.90;97.80
24802;DHT22;12898;50.520;12.152;2023-09-19T09:56:05;19.90;94.10
24802;DHT22;12898;50.520;12.152;2023-09-19T09:58:52;19.90;93.20
24802;DHT22;12898;50.520;12.152;2023-09-19T10:01:24;19.60;92.80
24802;DHT22;12898;50.520;12.152;2023-09-19T10:03:57;19.40;94.00
24802;DHT22;12898;50.520;12.152;2023-09-19T10:06:23;19.50;94.60
24802;DHT22;12898;50.520;12.152;2023-09-19T10:09:09;19.60;94.70
24802;DHT22;12898;50.520;12.152;2023-09-19T10:12:06;19.60;94.70
24802;DHT22;12898;50.520;12.152;2023-09-19T10:14:38;19.70;95.40
24802;DHT22;12898;50.520;12.152;2023-09-19T10:17:09;19.90;95.20
24802;DHT22;12898;50.520;12.152;2023-09-19T10:19:42;20.30;93.90
24802;DHT22;12898;50.520;12.152;2023-09-19T10:22:23;20.30;92.90
24802;DHT22;12898;50.520;12.152;2023-09-19T10:24:53;20.20;91.40
24802;DHT22;12898;50.520;12.152;2023-09-19T10:27:25;19.90;91.10
24802;DHT22;12898;50.520;12.152;2023-09-19T10:29:52;19.90;92.40
24802;DHT22;12898;50.520;12.152;2023-09-19T10:32:23;20.10;92.60
24802;DHT22;12898;50.520;12.152;2023-09-19T10:34:50;20.30;93.80
24802;DHT22;12898;50.520;12.152;2023-09-19T10:37:21;20.70;94.10
24802;DHT22;12898;50.520;12.152;2023-09-19T10:39:51;21.00;89.30
24802;DHT22;12898;50.520;12.152;2023-09-19T10:42:19;20.90;87.00
24802;DHT22;12898;50.520;12.152;2023-09-19T10:44:47;20.80;89.60
24802;DHT22;12898;50.520;12.152;2023-09-19T10:47:19;20.80;88.50
24802;DHT22;12898;50.520;12.152;2023-09-19T10:49:46;20.70;90.00
24802;DHT22;12898;50.520;12.152;2023-09-19T10:52:14;20.60;91.80
24802;DHT22;12898;50.520;12.152;2023-09-19T10:54:48;20.70;90.20
24802;DHT22;12898;50.520;12.152;2023-09-19T10:57:21;20.80;87.10
24802;DHT22;12898;50.520;12.152;2023-09-19T11:00:08;20.60;84.60
24802;DHT22;12898;50.520;12.152;2023-09-19T11:05:40;20.40;84.40
24802;DHT22;12898;50.520;12.152;2023-09-19T11:08:10;20.50;83.40
24802;DHT22;12898;50.520;12.152;2023-09-19T11:10:51;20.50;85.00
24802;DHT22;12898;50.520;12.152;2023-09-19T11:13:30;20.90;81.20
24802;DHT22;12898;50.520;12.152;2023-09-19T11:16:03;21.30;76.00
24802;DHT22;12898;50.520;12.152;2023-09-19T11:26:48;20.90;71.90
24802;DHT22;12898;50.520;12.152;2023-09-19T11:29:30;20.70;75.40
24802;DHT22;12898;50.520;12.152;2023-09-19T11:31:57;20.80;76.50
24802;DHT22;12898;50.520;12.152;2023-09-19T11:34:44;20.90;75.00
24802;DHT22;12898;50.520;12.152;2023-09-19T11:39:40;20.70;78.50
24802;DHT22;12898;50.520;12.152;2023-09-19T11:42:44;20.50;79.30
24802;DHT22;12898;50.520;12.152;2023-09-19T11:48:16;20.60;82.20
24802;DHT22;12898;50.520;12.152;2023-09-19T11:50:44;21.10;82.50
24802;DHT22;12898;50.520;12.152;2023-09-19T11:53:13;21.30;79.00
24802;DHT22;12898;50.520;12.152;2023-09-19T11:55:41;21.90;79.40
24802;DHT22;12898;50.520;12.152;2023-09-19T11:58:09;22.40;71.20
24802;DHT22;12898;50.520;12.152;2023-09-19T12:00:39;22.50;66.00
24802;DHT22;12898;50.520;12.152;2023-09-19T12:03:10;22.30;67.00
24802;DHT22;12898;50.520;12.152;2023-09-19T12:05:37;22.50;64.90
24802;DHT22;12898;50.520;12.152;2023-09-19T12:08:04;22.10;64.10
24802;DHT22;12898;50.520;12.152;2023-09-19T12:10:43;21.80;66.30
24802;DHT22;12898;50.520;12.152;2023-09-19T12:13:18;21.90;68.40
24802;DHT22;12898;50.520;12.152;2023-09-19T12:15:45;21.90;68.00
24802;DHT22;12898;50.520;12.152;2023-09-19T12:18:29;21.50;67.50
24802;DHT22;12898;50.520;12.152;2023-09-19T12:20:55;21.40;67.40
24802;DHT22;12898;50.520;12.152;2023-09-19T12:23:23;21.50;66.60
24802;DHT22;12898;50.520;12.152;2023-09-19T12:25:49;21.40;64.40
24802;DHT22;12898;50.520;12.152;2023-09-19T12:28:19;21.60;67.00
24802;DHT22;12898;50.520;12.152;2023-09-19T12:30:48;21.70;64.70
24802;DHT22;12898;50.520;12.152;2023-09-19T12:33:19;21.90;60.30
24802;DHT22;12898;50.520;12.152;2023-09-19T12:35:46;22.10;62.80
24802;DHT22;12898;50.520;12.152;2023-09-19T12:38:31;22.30;63.50
24802;DHT22;12898;50.520;12.152;2023-09-19T12:41:01;22.30;62.20
24802;DHT22;12898;50.520;12.152;2023-09-19T12:43:31;22.40;66.10
24802;DHT22;12898;50.520;12.152;2023-09-19T12:46:01;22.40;63.70
24802;DHT22;12898;50.520;12.152;2023-09-19T12:48:28;21.90;61.30
24802;DHT22;12898;50.520;12.152;2023-09-19T12:51:10;21.70;63.10
24802;DHT22;12898;50.520;12.152;2023-09-19T12:53:43;21.70;64.30
24802;DHT22;12898;50.520;12.152;2023-09-19T12:56:15;21.60;65.30
24802;DHT22;12898;50.520;12.152;2023-09-19T12:58:52;21.70;63.80
24802;DHT22;12898;50.520;12.152;2023-09-19T13:01:19;22.10;65.40
24802;DHT22;12898;50.520;12.152;2023-09-19T13:03:46;22.70;63.70
24802;DHT22;12898;50.520;12.152;2023-09-19T13:06:11;23.00;60.90
24802;DHT22;12898;50.520;12.152;2023-09-19T13:08:39;22.90;58.90
24802;DHT22;12898;50.520;12.152;2023-09-19T13:11:14;22.70;58.90
24802;DHT22;12898;50.520;12.152;2023-09-19T13:13:45;22.80;59.00
24802;DHT22;12898;50.520;12.152;2023-09-19T13:16:19;22.70;58.40
24802;DHT22;12898;50.520;12.152;2023-09-19T13:18:49;22.60;58.00
24802;DHT22;12898;50.520;12.152;2023-09-19T13:21:34;22.50;56.20
24802;DHT22;12898;50.520;12.152;2023-09-19T13:24:21;22.40;56.90
24802;DHT22;12898;50.520;12.152;2023-09-19T13:26:49;22.50;56.20
24802;DHT22;12898;50.520;12.152;2023-09-19T13:29:15;22.60;55.30
24802;DHT22;12898;50.520;12.152;2023-09-19T13:31:51;22.50;55.50
24802;DHT22;12898;50.520;12.152;2023-09-19T13:34:20;22.60;55.70
24802;DHT22;12898;50.520;12.152;2023-09-19T13:36:46;22.60;54.20
24802;DHT22;12898;50.520;12.152;2023-09-19T13:39:14;22.60;53.40
24802;DHT22;12898;50.520;12.152;2023-09-19T13:41:41;22.50;54.80
24802;DHT22;12898;50.520;12.152;2023-09-19T13:44:09;22.30;53.80
24802;DHT22;12898;50.520;12.152;2023-09-19T13:46:36;22.40;54.10
24802;DHT22;12898;50.520;12.152;2023-09-19T13:49:02;22.60;53.70
24802;DHT22;12898;50.520;12.152;2023-09-19T13:51:31;22.50;52.40
24802;DHT22;12898;50.520;12.152;2023-09-19T13:53:58;22.40;52.10
24802;DHT22;12898;50.520;12.152;2023-09-19T13:56:25;22.20;52.20
24802;DHT22;12898;50.520;12.152;2023-09-19T13:58:55;22.10;52.50
24802;DHT22;12898;50.520;12.152;2023-09-19T14:01:21;22.00;52.20
24802;DHT22;12898;50.520;12.152;2023-09-19T14:03:47;22.10;52.90
24802;DHT22;12898;50.520;12.152;2023-09-19T14:06:15;22.10;51.70
24802;DHT22;12898;50.520;12.152;2023-09-19T14:08:42;22.30;52.10
24802;DHT22;12898;50.520;12.152;2023-09-19T14:11:08;22.50;50.90
24802;DHT22;12898;50.520;12.152;2023-09-19T14:13:34;22.40;50.90
24802;DHT22;12898;50.520;12.152;2023-09-19T14:16:07;22.40;50.90
24802;DHT22;12898;50.520;12.152;2023-09-19T14:18:34;22.30;50.60
24802;DHT22;12898;50.520;12.152;2023-09-19T14:21:07;22.30;51.00
24802;DHT22;12898;50.520;12.152;2023-09-19T14:23:37;22.10;50.80
24802;DHT22;12898;50.520;12.152;2023-09-19T14:26:04;21.90;51.80
24802;DHT22;12898;50.520;12.152;2023-09-19T14:28:31;21.80;52.30
24802;DHT22;12898;50.520;12.152;2023-09-19T14:31:10;21.80;52.80
24802;DHT22;12898;50.520;12.152;2023-09-19T14:33:37;22.00;52.50
24802;DHT22;12898;50.520;12.152;2023-09-19T14:36:07;21.90;51.60
24802;DHT22;12898;50.520;12.152;2023-09-19T14:38:36;21.70;52.30
24802;DHT22;12898;50.520;12.152;2023-09-19T14:41:05;21.40;52.00
24802;DHT22;12898;50.520;12.152;2023-09-19T14:43:31;21.40;53.10
24802;DHT22;12898;50.520;12.152;2023-09-19T14:46:05;21.50;53.20
24802;DHT22;12898;50.520;12.152;2023-09-19T14:48:35;21.60;53.20
24802;DHT22;12898;50.520;12.152;2023-09-19T14:51:07;21.50;52.70
24802;DHT22;12898;50.520;12.152;2023-09-19T14:53:37;21.70;52.70
24802;DHT22;12898;50.520;12.152;2023-09-19T14:56:05;21.60;52.60
24802;DHT22;12898;50.520;12.152;2023-09-19T14:58:33;21.60;53.50
24802;DHT22;12898;50.520;12.152;2023-09-19T15:01:06;21.70;54.30
24802;DHT22;12898;50.520;12.152;2023-09-19T15:03:35;21.80;53.40
24802;DHT22;12898;50.520;12.152;2023-09-19T15:06:03;21.80;53.70
24802;DHT22;12898;50.520;12.152;2023-09-19T15:08:33;21.80;53.00
24802;DHT22;12898;50.520;12.152;2023-09-19T15:11:02;21.60;53.60
24802;DHT22;12898;50.520;12.152;2023-09-19T15:13:31;21.50;54.50
24802;DHT22;12898;50.520;12.152;2023-09-19T15:18:28;21.20;54.70
24802;DHT22;12898;50.520;12.152;2023-09-19T15:21:05;21.10;55.90
24802;DHT22;12898;50.520;12.152;2023-09-19T15:23:32;21.20;55.80
24802;DHT22;12898;50.520;12.152;2023-09-19T15:26:00;21.10;56.30
24802;DHT22;12898;50.520;12.152;2023-09-19T15:28:29;21.00;56.10
24802;DHT22;12898;50.520;12.152;2023-09-19T15:31:03;20.90;57.30
24802;DHT22;12898;50.520;12.152;2023-09-19T15:33:30;20.90;57.30
24802;DHT22;12898;50.520;12.152;2023-09-19T15:36:10;20.70;57.40
24802;DHT22;12898;50.520;12.152;2023-09-19T15:39:01;20.70;58.30
24802;DHT22;12898;50.520;12.152;2023-09-19T15:41:40;20.80;58.40
24802;DHT22;12898;50.520;12.152;2023-09-19T15:44:15;20.70;59.10
24802;DHT22;12898;50.520;12.152;2023-09-19T15:46:42;20.70;58.90
24802;DHT22;12898;50.520;12.152;2023-09-19T15:49:08;20.70;59.00
24802;DHT22;12898;50.520;12.152;2023-09-19T15:51:34;20.70;59.30
24802;DHT22;12898;50.520;12.152;2023-09-19T15:54:13;20.60;59.60
24802;DHT22;12898;50.520;12.152;2023-09-19T15:56:44;20.50;60.10
24802;DHT22;12898;50.520;12.152;2023-09-19T15:59:10;20.30;60.90
24802;DHT22;12898;50.520;12.152;2023-09-19T16:01:40;20.10;61.10
24802;DHT22;12898;50.520;12.152;2023-09-19T16:04:08;19.90;61.50
24802;DHT22;12898;50.520;12.152;2023-09-19T16:06:35;19.80;62.60